sensor_id;sensor_type;location;lat;lon;timestamp;P1;durP1;ratioP1;P2;durP2;ratioP2
7203;SDS011;3643;52.460;13.322;2023-12-20T00:01:25;28.57;;;10.67;;
7203;SDS011;3643;52.460;13.322;2023-12-20T00:03:53;31.07;;;11.33;;
7203;SDS011;3643;52.460;13.322;2023-12-20T00:06:21;39.17;;;13.67;;
7203;SDS011;3643;52.460;13.322;2023-12-20T00:08:49;50.43;;;15.80;;
7203;SDS011;3643;52.460;13.322;2023-12-20T00:11:17;27.13;;;12.20;;
7203;SDS011;3643;52.460;13.322;2023-12-20T00:13:45;32.43;;;11.77;;
7203;SDS011;3643;52.460;13.322;2023-12-20T00:16:17;37.17;;;13.00;;
7203;SDS011;3643;52.460;13.322;2023-12-20T00:18:46;28.60;;;11.67;;
7203;SDS011;3643;52.460;13.322;2023-12-20T00:21:14;31.07;;;11.13;;
7203;SDS011;3643;52.460;13.322;2023-12-20T00:23:42;29.73;;;10.00;;
7203;SDS011;3643;52.460;13.322;2023-12-20T00:26:10;22.73;;;9.20;;
7203;SDS011;3643;52.460;13.322;2023-12-20T00:28:38;24.70;;;10.47;;
7203;SDS011;3643;52.460;13.322;2023-12-20T00:31:06;24.53;;;8.87;;
7203;SDS011;3643;52.460;13.322;2023-12-20T00:33:35;26.40;;;10.83;;
7203;SDS011;3643;52.460;13.322;2023-12-20T00:36:05;32.93;;;11.47;;
7203;SDS011;3643;52.460;13.322;2023-12-20T00:38:33;18.73;;;8.57;;
7203;SDS011;3643;52.460;13.322;2023-12-20T00:41:01;19.17;;;8.00;;
7203;SDS011;3643;52.460;13.322;2023-12-20T00:43:30;21.30;;;9.23;;
7203;SDS011;3643;52.460;13.322;2023-12-20T00:45:57;28.17;;;9.13;;
7203;SDS011;3643;52.460;13.322;2023-12-20T00:48:26;20.07;;;8.90;;
7203;SDS011;3643;52.460;13.322;2023-12-20T00:50:56;21.10;;;8.10;;
7203;SDS011;3643;52.460;13.322;2023-12-20T00:53:26;25.40;;;10.23;;
7203;SDS011;3643;52.460;13.322;2023-12-20T00:55:54;18.53;;;8.47;;
7203;SDS011;3643;52.460;13.322;2023-12-20T00:58:22;39.50;;;15.30;;
7203;SDS011;3643;52.460;13.322;2023-12-20T01:00:50;19.77;;;8.93;;
7203;SDS011;3643;52.460;13.322;2023-12-20T01:03:18;23.07;;;9.80;;
7203;SDS011;3643;52.460;13.322;2023-12-20T01:05:45;31.10;;;11.03;;
7203;SDS011;3643;52.460;13.322;2023-12-20T01:08:13;20.13;;;8.53;;
7203;SDS011;3643;52.460;13.322;2023-12-20T01:10:42;37.20;;;11.60;;
7203;SDS011;3643;52.460;13.322;2023-12-20T01:13:10;27.37;;;10.57;;
7203;SDS011;3643;52.460;13.322;2023-12-20T01:15:38;15.73;;;7.60;;
7203;SDS011;3643;52.460;13.322;2023-12-20T01:18:06;16.50;;;8.07;;
7203;SDS011;3643;52.460;13.322;2023-12-20T01:20:35;17.23;;;7.60;;
7203;SDS011;3643;52.460;13.322;2023-12-20T01:23:03;27.90;;;10.30;;
7203;SDS011;3643;52.460;13.322;2023-12-20T01:25:31;24.57;;;10.13;;
7203;SDS011;3643;52.460;13.322;2023-12-20T01:28:00;21.33;;;9.10;;
7203;SDS011;3643;52.460;13.322;2023-12-20T01:30:29;19.93;;;7.90;;
7203;SDS011;3643;52.460;13.322;2023-12-20T01:32:59;21.90;;;8.17;;
7203;SDS011;3643;52.460;13.322;2023-12-20T01:35:27;19.97;;;8.30;;
7203;SDS011;3643;52.460;13.322;2023-12-20T01:37:54;14.20;;;6.93;;
7203;SDS011;3643;52.460;13.322;2023-12-20T01:40:22;18.60;;;8.50;;
7203;SDS011;3643;52.460;13.322;2023-12-20T01:42:57;15.53;;;7.17;;
7203;SDS011;3643;52.460;13.322;2023-12-20T01:45:28;18.27;;;7.53;;
7203;SDS011;3643;52.460;13.322;2023-12-20T01:47:56;20.20;;;7.50;;
7203;SDS011;3643;52.460;13.322;2023-12-20T01:50:26;23.03;;;7.60;;
7203;SDS011;3643;52.460;13.322;2023-12-20T01:52:55;14.97;;;6.80;;
7203;SDS011;3643;52.460;13.322;2023-12-20T01:55:24;12.97;;;5.90;;
7203;SDS011;3643;52.460;13.322;2023-12-20T01:57:54;16.63;;;7.10;;
7203;SDS011;3643;52.460;13.322;2023-12-20T02:00:24;17.37;;;7.53;;
7203;SDS011;3643;52.460;13.322;2023-12-20T02:02:55;23.63;;;8.73;;
7203;SDS011;3643;52.460;13.322;2023-12-20T02:05:24;13.87;;;7.60;;
7203;SDS011;3643;52.460;13.322;2023-12-20T02:07:54;19.33;;;8.83;;
7203;SDS011;3643;52.460;13.322;2023-12-20T02:10:22;28.60;;;10.17;;
7203;SDS011;3643;52.460;13.322;2023-12-20T02:12:51;32.73;;;11.70;;
7203;SDS011;3643;52.460;13.322;2023-12-20T02:15:19;22.67;;;9.53;;
7203;SDS011;3643;52.460;13.322;2023-12-20T02:17:47;17.97;;;8.50;;
7203;SDS011;3643;52.460;13.322;2023-12-20T02:20:17;21.40;;;8.53;;
7203;SDS011;3643;52.460;13.322;2023-12-20T02:22:47;21.80;;;9.03;;
7203;SDS011;3643;52.460;13.322;2023-12-20T02:25:15;29.37;;;10.90;;
7203;SDS011;3643;52.460;13.322;2023-12-20T02:27:43;32.83;;;11.40;;
7203;SDS011;3643;52.460;13.322;2023-12-20T02:30:11;21.10;;;10.03;;
7203;SDS011;3643;52.460;13.322;2023-12-20T02:32:39;37.17;;;12.87;;
7203;SDS011;3643;52.460;13.322;2023-12-20T02:35:07;31.97;;;11.67;;
7203;SDS011;3643;52.460;13.322;2023-12-20T02:37:36;24.07;;;9.60;;
7203;SDS011;3643;52.460;13.322;2023-12-20T02:40:06;23.93;;;10.17;;
7203;SDS011;3643;52.460;13.322;2023-12-20T02:42:34;34.93;;;12.73;;
7203;SDS011;3643;52.460;13.322;2023-12-20T02:45:03;32.37;;;11.17;;
7203;SDS011;3643;52.460;13.322;2023-12-20T02:47:31;24.57;;;10.63;;
7203;SDS011;3643;52.460;13.322;2023-12-20T02:49:59;33.50;;;12.70;;
7203;SDS011;3643;52.460;13.322;2023-12-20T02:52:28;33.50;;;12.47;;
7203;SDS011;3643;52.460;13.322;2023-12-20T02:54:56;32.90;;;12.40;;
7203;SDS011;3643;52.460;13.322;2023-12-20T02:57:26;32.00;;;13.00;;
7203;SDS011;3643;52.460;13.322;2023-12-20T02:59:54;37.33;;;11.87;;
7203;SDS011;3643;52.460;13.322;2023-12-20T03:02:22;35.83;;;11.93;;
7203;SDS011;3643;52.460;13.322;2023-12-20T03:04:50;26.80;;;11.10;;
7203;SDS011;3643;52.460;13.322;2023-12-20T03:07:18;42.93;;;13.63;;
7203;SDS011;3643;52.460;13.322;2023-12-20T03:09:46;36.30;;;12.13;;
7203;SDS011;3643;52.460;13.322;2023-12-20T03:12:35;30.60;;;11.73;;
7203;SDS011;3643;52.460;13.322;2023-12-20T03:15:04;29.50;;;10.93;;
7203;SDS011;3643;52.460;13.322;2023-12-20T03:17:32;50.43;;;12.97;;
7203;SDS011;3643;52.460;13.322;2023-12-20T03:20:00;42.97;;;14.37;;
7203;SDS011;3643;52.460;13.322;2023-12-20T03:22:28;40.83;;;12.93;;
7203;SDS011;3643;52.460;13.322;2023-12-20T03:24:56;33.97;;;11.63;;
7203;SDS011;3643;52.460;13.322;2023-12-20T03:27:24;41.03;;;11.67;;
7203;SDS011;3643;52.460;13.322;2023-12-20T03:29:54;33.80;;;11.70;;
7203;SDS011;3643;52.460;13.322;2023-12-20T03:32:22;26.97;;;9.27;;
7203;SDS011;3643;52.460;13.322;2023-12-20T03:34:50;31.43;;;10.30;;
7203;SDS011;3643;52.460;13.322;2023-12-20T03:37:18;31.70;;;9.73;;
7203;SDS011;3643;52.460;13.322;2023-12-20T03:39:46;38.03;;;10.10;;
7203;SDS011;3643;52.460;13.322;2023-12-20T03:42:14;32.20;;;9.77;;
7203;SDS011;3643;52.460;13.322;2023-12-20T03:44:42;43.33;;;10.43;;
7203;SDS011;3643;52.460;13.322;2023-12-20T03:47:11;36.47;;;9.03;;
7203;SDS011;3643;52.460;13.322;2023-12-20T03:49:39;36.17;;;8.97;;
7203;SDS011;3643;52.460;13.322;2023-12-20T03:52:07;38.13;;;10.27;;
7203;SDS011;3643;52.460;13.322;2023-12-20T03:54:36;29.47;;;8.37;;
7203;SDS011;3643;52.460;13.322;2023-12-20T03:57:04;26.27;;;8.03;;
7203;SDS011;3643;52.460;13.322;2023-12-20T03:59:34;19.67;;;7.07;;
7203;SDS011;3643;52.460;13.322;2023-12-20T04:02:02;25.77;;;7.90;;
7203;SDS011;3643;52.460;13.322;2023-12-20T04:04:32;22.90;;;6.70;;
7203;SDS011;3643;52.460;13.322;2023-12-20T04:07:00;31.37;;;7.70;;
7203;SDS011;3643;52.460;13.322;2023-12-20T04:09:28;19.33;;;6.47;;
7203;SDS011;3643;52.460;13.322;2023-12-20T04:11:56;15.17;;;5.50;;
7203;SDS011;3643;52.460;13.322;2023-12-20T04:14:24;14.17;;;5.10;;
7203;SDS011;3643;52.460;13.322;2023-12-20T04:16:53;27.50;;;5.80;;
7203;SDS011;3643;52.460;13.322;2023-12-20T04:19:21;16.77;;;5.00;;
7203;SDS011;3643;52.460;13.322;2023-12-20T04:21:50;15.53;;;4.80;;
7203;SDS011;3643;52.460;13.322;2023-12-20T04:24:19;17.00;;;4.37;;
7203;SDS011;3643;52.460;13.322;2023-12-20T04:26:47;11.20;;;3.90;;
7203;SDS011;3643;52.460;13.322;2023-12-20T04:29:15;17.43;;;4.37;;
7203;SDS011;3643;52.460;13.322;2023-12-20T04:31:43;11.73;;;4.73;;
7203;SDS011;3643;52.460;13.322;2023-12-20T04:34:11;15.20;;;4.97;;
7203;SDS011;3643;52.460;13.322;2023-12-20T04:36:39;13.13;;;4.10;;
7203;SDS011;3643;52.460;13.322;2023-12-20T04:39:08;20.10;;;4.67;;
7203;SDS011;3643;52.460;13.322;2023-12-20T04:41:37;16.60;;;3.90;;
7203;SDS011;3643;52.460;13.322;2023-12-20T04:44:05;14.87;;;4.00;;
7203;SDS011;3643;52.460;13.322;2023-12-20T04:46:33;19.43;;;3.70;;
7203;SDS011;3643;52.460;13.322;2023-12-20T04:49:01;25.33;;;5.07;;
7203;SDS011;3643;52.460;13.322;2023-12-20T04:51:29;12.13;;;4.33;;
7203;SDS011;3643;52.460;13.322;2023-12-20T04:54:00;12.53;;;3.53;;
7203;SDS011;3643;52.460;13.322;2023-12-20T04:56:29;16.40;;;4.43;;
7203;SDS011;3643;52.460;13.322;2023-12-20T04:58:57;16.40;;;4.63;;
7203;SDS011;3643;52.460;13.322;2023-12-20T05:01:25;15.80;;;4.50;;
7203;SDS011;3643;52.460;13.322;2023-12-20T05:03:53;18.37;;;4.53;;
7203;SDS011;3643;52.460;13.322;2023-12-20T05:06:21;18.10;;;3.87;;
7203;SDS011;3643;52.460;13.322;2023-12-20T05:08:51;17.80;;;3.90;;
7203;SDS011;3643;52.460;13.322;2023-12-20T05:11:19;16.57;;;3.83;;
7203;SDS011;3643;52.460;13.322;2023-12-20T05:13:48;26.03;;;4.57;;
7203;SDS011;3643;52.460;13.322;2023-12-20T05:16:16;20.03;;;3.83;;
7203;SDS011;3643;52.460;13.322;2023-12-20T05:18:47;13.40;;;3.70;;
7203;SDS011;3643;52.460;13.322;2023-12-20T05:21:16;14.53;;;3.50;;
7203;SDS011;3643;52.460;13.322;2023-12-20T05:23:43;10.73;;;3.43;;
7203;SDS011;3643;52.460;13.322;2023-12-20T05:26:12;13.17;;;3.57;;
7203;SDS011;3643;52.460;13.322;2023-12-20T05:28:40;15.40;;;3.47;;
7203;SDS011;3643;52.460;13.322;2023-12-20T05:31:10;13.33;;;3.33;;
7203;SDS011;3643;52.460;13.322;2023-12-20T05:33:38;19.53;;;3.77;;
7203;SDS011;3643;52.460;13.322;2023-12-20T05:36:06;15.33;;;3.73;;
7203;SDS011;3643;52.460;13.322;2023-12-20T05:38:37;20.53;;;3.50;;
7203;SDS011;3643;52.460;13.322;2023-12-20T05:41:05;19.33;;;3.30;;
7203;SDS011;3643;52.460;13.322;2023-12-20T05:43:33;17.70;;;3.50;;
7203;SDS011;3643;52.460;13.322;2023-12-20T05:46:01;14.50;;;3.90;;
7203;SDS011;3643;52.460;13.322;2023-12-20T05:48:31;16.03;;;3.43;;
7203;SDS011;3643;52.460;13.322;2023-12-20T05:50:59;10.60;;;2.60;;
7203;SDS011;3643;52.460;13.322;2023-12-20T05:53:27;14.63;;;2.87;;
7203;SDS011;3643;52.460;13.322;2023-12-20T05:55:55;13.27;;;3.70;;
7203;SDS011;3643;52.460;13.322;2023-12-20T05:58:23;8.67;;;3.00;;
7203;SDS011;3643;52.460;13.322;2023-12-20T06:00:51;14.33;;;3.27;;
7203;SDS011;3643;52.460;13.322;2023-12-20T06:03:19;18.40;;;3.37;;
7203;SDS011;3643;52.460;13.322;2023-12-20T06:05:49;15.03;;;3.23;;
7203;SDS011;3643;52.460;13.322;2023-12-20T06:08:21;27.37;;;3.90;;
7203;SDS011;3643;52.460;13.322;2023-12-20T06:10:48;14.17;;;3.50;;
7203;SDS011;3643;52.460;13.322;2023-12-20T06:13:17;9.47;;;2.87;;
7203;SDS011;3643;52.460;13.322;2023-12-20T06:15:45;23.00;;;3.50;;
7203;SDS011;3643;52.460;13.322;2023-12-20T06:18:12;19.30;;;3.60;;
7203;SDS011;3643;52.460;13.322;2023-12-20T06:20:41;20.63;;;3.50;;
7203;SDS011;3643;52.460;13.322;2023-12-20T06:23:10;10.67;;;2.97;;
7203;SDS011;3643;52.460;13.322;2023-12-20T06:25:38;20.00;;;3.30;;
7203;SDS011;3643;52.460;13.322;2023-12-20T06:28:06;15.07;;;3.60;;
7203;SDS011;3643;52.460;13.322;2023-12-20T06:30:36;12.77;;;3.70;;
7203;SDS011;3643;52.460;13.322;2023-12-20T06:33:04;11.30;;;3.10;;
7203;SDS011;3643;52.460;13.322;2023-12-20T06:35:33;25.13;;;4.13;;
7203;SDS011;3643;52.460;13.322;2023-12-20T06:38:02;17.20;;;4.37;;
7203;SDS011;3643;52.460;13.322;2023-12-20T06:40:32;18.73;;;4.27;;
7203;SDS011;3643;52.460;13.322;2023-12-20T06:43:00;17.93;;;3.60;;
7203;SDS011;3643;52.460;13.322;2023-12-20T06:45:41;15.13;;;5.23;;
7203;SDS011;3643;52.460;13.322;2023-12-20T06:48:10;16.50;;;4.00;;
7203;SDS011;3643;52.460;13.322;2023-12-20T06:50:39;19.60;;;4.37;;
7203;SDS011;3643;52.460;13.322;2023-12-20T06:53:07;22.10;;;4.67;;
7203;SDS011;3643;52.460;13.322;2023-12-20T06:55:37;20.30;;;6.67;;
7203;SDS011;3643;52.460;13.322;2023-12-20T06:58:05;23.70;;;5.23;;
7203;SDS011;3643;52.460;13.322;2023-12-20T07:00:34;17.83;;;5.00;;
7203;SDS011;3643;52.460;13.322;2023-12-20T07:03:02;24.13;;;4.57;;
7203;SDS011;3643;52.460;13.322;2023-12-20T07:05:30;28.13;;;6.03;;
7203;SDS011;3643;52.460;13.322;2023-12-20T07:07:59;19.37;;;6.07;;
7203;SDS011;3643;52.460;13.322;2023-12-20T07:10:27;15.50;;;4.43;;
7203;SDS011;3643;52.460;13.322;2023-12-20T07:12:56;16.20;;;4.53;;
7203;SDS011;3643;52.460;13.322;2023-12-20T07:15:25;17.60;;;4.60;;
7203;SDS011;3643;52.460;13.322;2023-12-20T07:17:53;17.90;;;4.60;;
7203;SDS011;3643;52.460;13.322;2023-12-20T07:20:21;29.93;;;5.40;;
7203;SDS011;3643;52.460;13.322;2023-12-20T07:22:49;22.20;;;4.67;;
7203;SDS011;3643;52.460;13.322;2023-12-20T07:25:17;17.93;;;4.00;;
7203;SDS011;3643;52.460;13.322;2023-12-20T07:27:46;24.83;;;4.87;;
7203;SDS011;3643;52.460;13.322;2023-12-20T07:30:16;16.30;;;4.43;;
7203;SDS011;3643;52.460;13.322;2023-12-20T07:32:44;29.20;;;4.80;;
7203;SDS011;3643;52.460;13.322;2023-12-20T07:35:13;21.03;;;4.87;;
7203;SDS011;3643;52.460;13.322;2023-12-20T07:37:43;22.47;;;4.03;;
7203;SDS011;3643;52.460;13.322;2023-12-20T07:40:11;21.37;;;4.20;;
7203;SDS011;3643;52.460;13.322;2023-12-20T07:42:40;27.07;;;4.60;;
7203;SDS011;3643;52.460;13.322;2023-12-20T07:45:08;16.87;;;4.53;;
7203;SDS011;3643;52.460;13.322;2023-12-20T07:47:39;23.70;;;4.10;;
7203;SDS011;3643;52.460;13.322;2023-12-20T07:50:07;14.03;;;3.30;;
7203;SDS011;3643;52.460;13.322;2023-12-20T07:52:36;18.13;;;3.87;;
7203;SDS011;3643;52.460;13.322;2023-12-20T07:55:04;15.47;;;4.10;;
7203;SDS011;3643;52.460;13.322;2023-12-20T07:57:33;17.77;;;4.00;;
7203;SDS011;3643;52.460;13.322;2023-12-20T08:00:01;29.63;;;4.57;;
7203;SDS011;3643;52.460;13.322;2023-12-20T08:02:30;23.97;;;4.00;;
7203;SDS011;3643;52.460;13.322;2023-12-20T08:05:00;17.90;;;3.90;;
7203;SDS011;3643;52.460;13.322;2023-12-20T08:07:28;19.20;;;4.10;;
7203;SDS011;3643;52.460;13.322;2023-12-20T08:09:56;19.70;;;3.77;;
7203;SDS011;3643;52.460;13.322;2023-12-20T08:12:24;22.77;;;4.00;;
7203;SDS011;3643;52.460;13.322;2023-12-20T08:14:54;15.23;;;4.00;;
7203;SDS011;3643;52.460;13.322;2023-12-20T08:17:23;17.73;;;3.90;;
7203;SDS011;3643;52.460;13.322;2023-12-20T08:19:51;14.63;;;3.43;;
7203;SDS011;3643;52.460;13.322;2023-12-20T08:22:21;21.43;;;4.17;;
7203;SDS011;3643;52.460;13.322;2023-12-20T08:24:49;18.87;;;4.17;;
7203;SDS011;3643;52.460;13.322;2023-12-20T08:27:17;19.93;;;4.00;;
7203;SDS011;3643;52.460;13.322;2023-12-20T08:29:45;67.90;;;34.03;;
7203;SDS011;3643;52.460;13.322;2023-12-20T08:32:13;19.20;;;4.93;;
7203;SDS011;3643;52.460;13.322;2023-12-20T08:34:41;25.60;;;9.50;;
7203;SDS011;3643;52.460;13.322;2023-12-20T08:37:09;26.90;;;9.93;;
7203;SDS011;3643;52.460;13.322;2023-12-20T08:39:39;16.93;;;3.60;;
7203;SDS011;3643;52.460;13.322;2023-12-20T08:42:11;23.03;;;4.47;;
7203;SDS011;3643;52.460;13.322;2023-12-20T08:44:39;27.97;;;4.27;;
7203;SDS011;3643;52.460;13.322;2023-12-20T08:47:07;17.93;;;3.80;;
7203;SDS011;3643;52.460;13.322;2023-12-20T08:49:39;18.13;;;4.10;;
7203;SDS011;3643;52.460;13.322;2023-12-20T08:52:07;25.17;;;4.40;;
7203;SDS011;3643;52.460;13.322;2023-12-20T08:54:35;24.77;;;4.00;;
7203;SDS011;3643;52.460;13.322;2023-12-20T08:57:05;18.17;;;3.60;;
7203;SDS011;3643;52.460;13.322;2023-12-20T08:59:33;21.37;;;4.47;;
7203;SDS011;3643;52.460;13.322;2023-12-20T09:02:01;12.97;;;3.13;;
7203;SDS011;3643;52.460;13.322;2023-12-20T09:04:29;20.67;;;3.80;;
7203;SDS011;3643;52.460;13.322;2023-12-20T09:06:59;18.93;;;3.60;;
7203;SDS011;3643;52.460;13.322;2023-12-20T09:09:28;21.00;;;4.00;;
7203;SDS011;3643;52.460;13.322;2023-12-20T09:11:58;23.13;;;3.90;;
7203;SDS011;3643;52.460;13.322;2023-12-20T09:14:28;19.40;;;3.97;;
7203;SDS011;3643;52.460;13.322;2023-12-20T09:16:56;24.73;;;3.80;;
7203;SDS011;3643;52.460;13.322;2023-12-20T09:19:25;26.30;;;3.80;;
7203;SDS011;3643;52.460;13.322;2023-12-20T09:21:53;23.43;;;4.37;;
7203;SDS011;3643;52.460;13.322;2023-12-20T09:24:21;22.70;;;4.03;;
7203;SDS011;3643;52.460;13.322;2023-12-20T09:26:49;24.03;;;3.50;;
7203;SDS011;3643;52.460;13.322;2023-12-20T09:29:17;23.27;;;3.17;;
7203;SDS011;3643;52.460;13.322;2023-12-20T09:31:46;16.10;;;3.13;;
7203;SDS011;3643;52.460;13.322;2023-12-20T09:34:15;18.33;;;3.67;;
7203;SDS011;3643;52.460;13.322;2023-12-20T09:36:43;13.17;;;3.63;;
7203;SDS011;3643;52.460;13.322;2023-12-20T09:39:12;18.63;;;3.90;;
7203;SDS011;3643;52.460;13.322;2023-12-20T09:41:42;21.13;;;3.50;;
7203;SDS011;3643;52.460;13.322;2023-12-20T09:44:13;11.43;;;3.60;;
7203;SDS011;3643;52.460;13.322;2023-12-20T09:46:45;23.23;;;3.77;;
7203;SDS011;3643;52.460;13.322;2023-12-20T09:49:17;17.17;;;4.50;;
7203;SDS011;3643;52.460;13.322;2023-12-20T09:51:46;19.53;;;3.53;;
7203;SDS011;3643;52.460;13.322;2023-12-20T09:54:15;19.97;;;4.27;;
7203;SDS011;3643;52.460;13.322;2023-12-20T09:56:44;22.90;;;4.10;;
7203;SDS011;3643;52.460;13.322;2023-12-20T09:59:13;20.50;;;3.40;;
7203;SDS011;3643;52.460;13.322;2023-12-20T10:01:42;18.17;;;3.53;;
7203;SDS011;3643;52.460;13.322;2023-12-20T10:04:12;16.27;;;3.37;;
7203;SDS011;3643;52.460;13.322;2023-12-20T10:06:55;23.00;;;3.70;;
7203;SDS011;3643;52.460;13.322;2023-12-20T10:09:24;29.03;;;4.07;;
7203;SDS011;3643;52.460;13.322;2023-12-20T10:11:55;15.53;;;2.97;;
7203;SDS011;3643;52.460;13.322;2023-12-20T10:14:23;16.90;;;3.50;;
7203;SDS011;3643;52.460;13.322;2023-12-20T10:16:52;17.40;;;3.60;;
7203;SDS011;3643;52.460;13.322;2023-12-20T10:19:23;20.07;;;3.30;;
7203;SDS011;3643;52.460;13.322;2023-12-20T10:21:51;20.30;;;3.53;;
7203;SDS011;3643;52.460;13.322;2023-12-20T10:24:20;14.77;;;3.30;;
7203;SDS011;3643;52.460;13.322;2023-12-20T10:26:55;18.63;;;3.30;;
7203;SDS011;3643;52.460;13.322;2023-12-20T10:29:33;13.93;;;3.10;;
7203;SDS011;3643;52.460;13.322;2023-12-20T10:35:00;16.93;;;3.30;;
7203;SDS011;3643;52.460;13.322;2023-12-20T10:37:29;17.10;;;3.10;;
7203;SDS011;3643;52.460;13.322;2023-12-20T10:39:57;12.03;;;3.03;;
7203;SDS011;3643;52.460;13.322;2023-12-20T10:42:29;16.83;;;3.70;;
7203;SDS011;3643;52.460;13.322;2023-12-20T10:44:58;16.70;;;3.57;;
7203;SDS011;3643;52.460;13.322;2023-12-20T10:47:27;23.40;;;4.03;;
7203;SDS011;3643;52.460;13.322;2023-12-20T10:50:00;15.87;;;3.27;;
7203;SDS011;3643;52.460;13.322;2023-12-20T10:52:29;20.43;;;3.73;;
7203;SDS011;3643;52.460;13.322;2023-12-20T10:55:02;13.23;;;3.17;;
7203;SDS011;3643;52.460;13.322;2023-12-20T10:57:30;20.70;;;3.57;;
7203;SDS011;3643;52.460;13.322;2023-12-20T10:59:59;17.40;;;3.60;;
7203;SDS011;3643;52.460;13.322;2023-12-20T11:02:30;16.40;;;3.70;;
7203;SDS011;3643;52.460;13.322;2023-12-20T11:05:02;17.33;;;3.73;;
7203;SDS011;3643;52.460;13.322;2023-12-20T11:07:36;18.70;;;3.70;;
7203;SDS011;3643;52.460;13.322;2023-12-20T11:10:12;19.93;;;4.10;;
7203;SDS011;3643;52.460;13.322;2023-12-20T11:12:46;13.43;;;3.37;;
7203;SDS011;3643;52.460;13.322;2023-12-20T11:15:19;17.13;;;3.77;;
7203;SDS011;3643;52.460;13.322;2023-12-20T11:17:54;21.00;;;3.80;;
7203;SDS011;3643;52.460;13.322;2023-12-20T11:20:34;20.20;;;3.83;;
7203;SDS011;3643;52.460;13.322;2023-12-20T11:23:04;10.47;;;3.20;;
7203;SDS011;3643;52.460;13.322;2023-12-20T11:25:48;20.77;;;3.77;;
7203;SDS011;3643;52.460;13.322;2023-12-20T11:28:21;22.47;;;3.73;;
7203;SDS011;3643;52.460;13.322;2023-12-20T11:30:51;19.87;;;4.13;;
7203;SDS011;3643;52.460;13.322;2023-12-20T11:33:21;16.13;;;4.13;;
7203;SDS011;3643;52.460;13.322;2023-12-20T11:35:56;15.70;;;3.33;;
7203;SDS011;3643;52.460;13.322;2023-12-20T11:38:25;14.33;;;3.60;;
7203;SDS011;3643;52.460;13.322;2023-12-20T11:40:54;20.53;;;3.77;;
7203;SDS011;3643;52.460;13.322;2023-12-20T11:43:30;12.57;;;3.20;;
7203;SDS011;3643;52.460;13.322;2023-12-20T11:46:02;18.13;;;3.73;;
7203;SDS011;3643;52.460;13.322;2023-12-20T11:48:33;12.87;;;3.57;;
7203;SDS011;3643;52.460;13.322;2023-12-20T11:51:08;21.63;;;3.60;;
7203;SDS011;3643;52.460;13.322;2023-12-20T11:53:36;15.57;;;3.73;;
7203;SDS011;3643;52.460;13.322;2023-12-20T11:56:05;16.33;;;3.70;;
7203;SDS011;3643;52.460;13.322;2023-12-20T11:58:34;20.40;;;3.37;;
7203;SDS011;3643;52.460;13.322;2023-12-20T12:01:02;20.87;;;4.23;;
7203;SDS011;3643;52.460;13.322;2023-12-20T12:03:35;26.60;;;4.30;;
7203;SDS011;3643;52.460;13.322;2023-12-20T12:06:05;27.70;;;3.83;;
7203;SDS011;3643;52.460;13.322;2023-12-20T12:08:35;16.13;;;3.47;;
7203;SDS011;3643;52.460;13.322;2023-12-20T12:11:03;16.47;;;4.10;;
7203;SDS011;3643;52.460;13.322;2023-12-20T12:13:32;21.80;;;4.20;;
7203;SDS011;3643;52.460;13.322;2023-12-20T12:16:01;15.57;;;3.83;;
7203;SDS011;3643;52.460;13.322;2023-12-20T12:18:32;15.03;;;4.00;;
7203;SDS011;3643;52.460;13.322;2023-12-20T12:21:05;17.97;;;3.57;;
7203;SDS011;3643;52.460;13.322;2023-12-20T12:23:43;20.03;;;4.20;;
7203;SDS011;3643;52.460;13.322;2023-12-20T12:26:12;15.20;;;3.50;;
7203;SDS011;3643;52.460;13.322;2023-12-20T12:28:40;16.17;;;3.20;;
7203;SDS011;3643;52.460;13.322;2023-12-20T12:31:12;16.37;;;3.77;;
7203;SDS011;3643;52.460;13.322;2023-12-20T12:33:41;13.43;;;3.40;;
7203;SDS011;3643;52.460;13.322;2023-12-20T12:36:11;11.43;;;3.50;;
7203;SDS011;3643;52.460;13.322;2023-12-20T12:38:42;13.33;;;3.60;;
7203;SDS011;3643;52.460;13.322;2023-12-20T12:41:12;9.30;;;3.77;;
7203;SDS011;3643;52.460;13.322;2023-12-20T12:43:41;13.40;;;4.13;;
7203;SDS011;3643;52.460;13.322;2023-12-20T12:46:10;12.50;;;4.13;;
7203;SDS011;3643;52.460;13.322;2023-12-20T12:48:38;13.63;;;3.83;;
7203;SDS011;3643;52.460;13.322;2023-12-20T12:51:11;18.33;;;4.47;;
7203;SDS011;3643;52.460;13.322;2023-12-20T12:53:40;58.23;;;30.87;;
7203;SDS011;3643;52.460;13.322;2023-12-20T12:56:08;35.70;;;18.43;;
7203;SDS011;3643;52.460;13.322;2023-12-20T12:58:36;20.30;;;9.03;;
7203;SDS011;3643;52.460;13.322;2023-12-20T13:01:05;24.63;;;11.27;;
7203;SDS011;3643;52.460;13.322;2023-12-20T13:03:33;18.97;;;7.90;;
7203;SDS011;3643;52.460;13.322;2023-12-20T13:06:02;21.60;;;6.23;;
7203;SDS011;3643;52.460;13.322;2023-12-20T13:08:33;20.27;;;5.13;;
7203;SDS011;3643;52.460;13.322;2023-12-20T13:11:02;15.63;;;5.80;;
7203;SDS011;3643;52.460;13.322;2023-12-20T13:13:30;21.43;;;5.40;;
7203;SDS011;3643;52.460;13.322;2023-12-20T13:15:58;24.37;;;6.33;;
7203;SDS011;3643;52.460;13.322;2023-12-20T13:18:27;14.63;;;5.03;;
7203;SDS011;3643;52.460;13.322;2023-12-20T13:20:55;16.40;;;6.00;;
7203;SDS011;3643;52.460;13.322;2023-12-20T13:23:23;14.50;;;4.70;;
7203;SDS011;3643;52.460;13.322;2023-12-20T13:25:53;20.80;;;5.70;;
7203;SDS011;3643;52.460;13.322;2023-12-20T13:28:21;11.43;;;5.20;;
7203;SDS011;3643;52.460;13.322;2023-12-20T13:30:49;7.67;;;3.63;;
7203;SDS011;3643;52.460;13.322;2023-12-20T13:33:18;0.30;;;0.30;;
7203;SDS011;3643;52.460;13.322;2023-12-20T13:35:46;11.93;;;3.20;;
7203;SDS011;3643;52.460;13.322;2023-12-20T13:38:14;9.40;;;2.93;;
7203;SDS011;3643;52.460;13.322;2023-12-20T13:40:42;8.07;;;2.77;;
7203;SDS011;3643;52.460;13.322;2023-12-20T13:43:12;8.57;;;2.97;;
7203;SDS011;3643;52.460;13.322;2023-12-20T13:45:40;9.80;;;3.53;;
7203;SDS011;3643;52.460;13.322;2023-12-20T13:48:08;5.73;;;2.73;;
7203;SDS011;3643;52.460;13.322;2023-12-20T13:50:37;9.33;;;2.87;;
7203;SDS011;3643;52.460;13.322;2023-12-20T13:53:05;9.03;;;3.00;;
7203;SDS011;3643;52.460;13.322;2023-12-20T13:55:33;11.27;;;2.73;;
7203;SDS011;3643;52.460;13.322;2023-12-20T13:58:01;10.50;;;3.03;;
7203;SDS011;3643;52.460;13.322;2023-12-20T14:00:31;8.80;;;2.17;;
7203;SDS011;3643;52.460;13.322;2023-12-20T14:02:59;8.73;;;2.97;;
7203;SDS011;3643;52.460;13.322;2023-12-20T14:05:28;11.43;;;2.50;;
7203;SDS011;3643;52.460;13.322;2023-12-20T14:07:56;5.70;;;2.00;;
7203;SDS011;3643;52.460;13.322;2023-12-20T14:10:25;4.90;;;1.60;;
7203;SDS011;3643;52.460;13.322;2023-12-20T14:12:53;4.80;;;1.40;;
7203;SDS011;3643;52.460;13.322;2023-12-20T14:15:22;6.17;;;2.43;;
7203;SDS011;3643;52.460;13.322;2023-12-20T14:17:53;4.87;;;1.97;;
7203;SDS011;3643;52.460;13.322;2023-12-20T14:20:22;2.97;;;1.40;;
7203;SDS011;3643;52.460;13.322;2023-12-20T14:22:50;5.37;;;1.30;;
7203;SDS011;3643;52.460;13.322;2023-12-20T14:25:18;4.40;;;1.23;;
7203;SDS011;3643;52.460;13.322;2023-12-20T14:27:46;3.70;;;1.17;;
7203;SDS011;3643;52.460;13.322;2023-12-20T14:30:15;1.30;;;1.20;;
7203;SDS011;3643;52.460;13.322;2023-12-20T14:32:43;4.23;;;1.20;;
7203;SDS011;3643;52.460;13.322;2023-12-20T14:35:14;2.70;;;1.40;;
7203;SDS011;3643;52.460;13.322;2023-12-20T14:37:43;1.47;;;1.10;;
7203;SDS011;3643;52.460;13.322;2023-12-20T14:40:11;5.17;;;2.00;;
7203;SDS011;3643;52.460;13.322;2023-12-20T14:42:42;4.80;;;1.60;;
7203;SDS011;3643;52.460;13.322;2023-12-20T14:45:11;6.27;;;2.10;;
7203;SDS011;3643;52.460;13.322;2023-12-20T14:47:40;2.37;;;1.77;;
7203;SDS011;3643;52.460;13.322;2023-12-20T14:50:09;4.73;;;2.20;;
7203;SDS011;3643;52.460;13.322;2023-12-20T14:52:40;4.87;;;1.73;;
7203;SDS011;3643;52.460;13.322;2023-12-20T14:55:08;5.47;;;1.97;;
7203;SDS011;3643;52.460;13.322;2023-12-20T14:57:36;5.33;;;2.00;;
7203;SDS011;3643;52.460;13.322;2023-12-20T15:00:05;12.33;;;2.50;;
7203;SDS011;3643;52.460;13.322;2023-12-20T15:02:34;13.07;;;2.40;;